Time;durP1;ratioP1;P1;durP2;ratioP2;P2;SDS_P1;SDS_P2;PMS_P1;PMS_P2;Temp;Humidity;BMP_temperature;BMP_pressure;BME280_temperature;BME280_humidity;BME280_pressure;Samples;Min_cycle;Max_cycle;Signal;HPM_P1;HPM_P2
2022/10/28 00:00:30;;;;;;;11.38;7.45;;;24.60;50.10;;;;;;6228101;28;80669;-74
2022/10/28 00:03:30;;;;;;;12.27;7.35;;;24.60;50.20;;;;;;6222268;28;80897;-75
2022/10/28 00:06:31;;;;;;;13.13;7.55;;;24.60;50.20;;;;;;6226000;28;81075;-76
2022/10/28 00:09:31;;;;;;;14.27;7.68;;;24.60;50.10;;;;;;6241333;28;81182;-75
2022/10/28 00:12:32;;;;;;;11.55;7.57;;;24.60;50.10;;;;;;6226583;28;81327;-68
2022/10/28 00:15:33;;;;;;;13.93;7.43;;;24.60;50.00;;;;;;6227327;28;81077;-73
2022/10/28 00:18:33;;;;;;;11.52;7.90;;;24.60;49.90;;;;;;6225842;27;80880;-63
2022/10/28 00:21:34;;;;;;;13.27;8.57;;;24.60;49.90;;;;;;6225975;28;82513;-62
2022/10/28 00:24:34;;;;;;;14.05;7.35;;;24.60;49.70;;;;;;6212357;28;80657;-62
2022/10/28 00:27:35;;;;;;;11.90;8.30;;;24.60;49.80;;;;;;6224113;28;80526;-63
2022/10/28 00:30:35;;;;;;;11.68;7.95;;;24.60;49.80;;;;;;6227024;28;80573;-64
2022/10/28 00:33:36;;;;;;;13.23;7.45;;;24.60;49.70;;;;;;6239402;27;80626;-63
2022/10/28 00:36:36;;;;;;;14.77;7.82;;;24.60;49.70;;;;;;6227132;28;80635;-56
2022/10/28 00:39:37;;;;;;;13.82;7.97;;;24.60;49.60;;;;;;6223222;28;80940;-56
2022/10/28 00:42:37;;;;;;;14.88;8.70;;;24.60;49.60;;;;;;6232950;28;81095;-54
2022/10/28 00:45:38;;;;;;;13.98;8.05;;;24.60;49.50;;;;;;6230122;28;81197;-56
2022/10/28 00:48:40;;;;;;;12.60;8.55;;;24.60;49.60;;;;;;6224378;28;80106;-52
2022/10/28 00:51:40;;;;;;;12.50;8.07;;;24.60;49.50;;;;;;6229222;28;80858;-56
2022/10/28 00:54:41;;;;;;;13.75;8.30;;;24.60;49.60;;;;;;6244325;27;84461;-56
2022/10/28 00:57:41;;;;;;;12.38;8.25;;;24.60;49.50;;;;;;6222053;28;80934;-54
2022/10/28 01:00:42;;;;;;;13.57;8.50;;;24.60;49.50;;;;;;6237789;27;81112;-55
2022/10/28 01:03:42;;;;;;;14.05;7.85;;;24.60;49.50;;;;;;6234077;27;81656;-54
2022/10/28 01:06:43;;;;;;;12.18;8.05;;;24.60;49.50;;;;;;6221203;28;80963;-57
2022/10/28 01:09:43;;;;;;;13.02;8.35;;;24.60;49.70;;;;;;6222469;28;80802;-57
2022/10/28 01:12:44;;;;;;;11.85;8.02;;;24.60;49.40;;;;;;6226447;28;81278;-53
2022/10/28 01:15:44;;;;;;;12.65;7.97;;;24.50;49.30;;;;;;6219307;28;80702;-57
2022/10/28 01:18:45;;;;;;;11.25;7.95;;;24.50;49.90;;;;;;6219638;28;80476;-57
2022/10/28 01:21:45;;;;;;;10.32;7.05;;;24.50;49.30;;;;;;6220285;28;80778;-58
2022/10/28 01:24:46;;;;;;;13.50;7.93;;;24.60;49.40;;;;;;6214206;28;83202;-57
2022/10/28 01:27:47;;;;;;;11.88;7.85;;;24.60;49.40;;;;;;6225694;28;81919;-57
2022/10/28 01:30:47;;;;;;;13.23;7.15;;;24.60;49.50;;;;;;6223275;28;80270;-58
2022/10/28 01:33:48;;;;;;;11.05;7.65;;;24.60;49.60;;;;;;6235769;28;81220;-58
2022/10/28 01:36:48;;;;;;;10.75;6.63;;;24.60;49.70;;;;;;6230927;28;80649;-54
2022/10/28 01:39:49;;;;;;;10.30;6.65;;;24.60;49.60;;;;;;6240286;28;81165;-56
2022/10/28 01:42:49;;;;;;;11.93;7.05;;;24.60;49.60;;;;;;6230894;28;81229;-56
2022/10/28 01:45:50;;;;;;;12.38;7.78;;;24.60;49.60;;;;;;6223725;28;81467;-54
2022/10/28 01:48:50;;;;;;;10.20;7.20;;;24.60;49.60;;;;;;6223311;28;84551;-62
2022/10/28 01:51:51;;;;;;;11.43;7.20;;;24.60;49.50;;;;;;6224063;28;80795;-61
2022/10/28 01:54:52;;;;;;;13.60;6.40;;;24.60;49.50;;;;;;6222879;28;82899;-60
2022/10/28 01:57:52;;;;;;;11.90;7.53;;;24.50;49.40;;;;;;6224256;28;81032;-61
2022/10/28 02:00:53;;;;;;;8.20;6.40;;;24.60;49.40;;;;;;6224596;28;80361;-61
2022/10/28 02:03:53;;;;;;;10.15;6.45;;;24.50;49.30;;;;;;6225635;28;84108;-61
2022/10/28 02:06:54;;;;;;;10.90;6.65;;;24.50;49.20;;;;;;6222287;28;80953;-68
2022/10/28 02:09:54;;;;;;;10.18;6.57;;;24.60;49.20;;;;;;6225874;28;81147;-67
2022/10/28 02:12:54;;;;;;;13.80;7.60;;;24.50;49.10;;;;;;6222769;28;80441;-67
2022/10/28 02:15:55;;;;;;;12.30;7.10;;;24.50;49.10;;;;;;6224184;28;81091;-67
2022/10/28 02:18:55;;;;;;;11.93;7.35;;;24.50;49.00;;;;;;6218494;28;81638;-67
2022/10/28 02:21:56;;;;;;;14.50;6.90;;;24.60;49.00;;;;;;6220289;28;85389;-68
2022/10/28 02:24:56;;;;;;;12.00;7.43;;;24.60;49.00;;;;;;6221485;28;80915;-67
2022/10/28 02:27:57;;;;;;;11.30;7.68;;;24.60;48.90;;;;;;6226867;28;80902;-60
2022/10/28 02:30:59;;;;;;;11.57;7.10;;;24.60;48.90;;;;;;6222687;28;83917;-60
2022/10/28 02:33:59;;;;;;;10.27;6.85;;;24.50;48.70;;;;;;6223251;28;80366;-61
2022/10/28 02:37:00;;;;;;;10.93;6.95;;;24.60;48.80;;;;;;6223442;28;80666;-60
2022/10/28 02:40:00;;;;;;;11.48;7.43;;;24.50;48.80;;;;;;6225415;28;80941;-60
2022/10/28 02:43:01;;;;;;;11.90;7.18;;;24.50;48.70;;;;;;6219929;28;83387;-58
2022/10/28 02:46:01;;;;;;;11.68;7.07;;;24.60;48.70;;;;;;6224150;28;80955;-55
2022/10/28 02:49:02;;;;;;;10.75;7.75;;;24.50;48.60;;;;;;6236283;28;87261;-55
2022/10/28 02:52:02;;;;;;;8.73;6.63;;;24.60;48.60;;;;;;6225766;28;80418;-55
2022/10/28 02:55:05;;;;;;;11.00;6.88;;;24.60;48.60;;;;;;6220038;28;80615;-57
2022/10/28 02:58:06;;;;;;;10.73;6.45;;;24.50;48.50;;;;;;6222879;28;80657;-55
2022/10/28 03:01:07;;;;;;;11.95;7.07;;;24.50;48.50;;;;;;6222733;28;81553;-55
2022/10/28 03:04:07;;;;;;;12.02;7.05;;;24.50;48.50;;;;;;6227297;28;81175;-54
2022/10/28 03:07:08;;;;;;;11.65;7.45;;;24.50;48.40;;;;;;6227437;27;84169;-55
2022/10/28 03:10:08;;;;;;;10.98;7.53;;;24.50;48.40;;;;;;6227952;28;81108;-56
2022/10/28 03:13:09;;;;;;;10.07;7.32;;;24.50;48.40;;;;;;6222939;28;80241;-54
2022/10/28 03:16:09;;;;;;;11.23;6.70;;;24.50;48.30;;;;;;6226518;28;80651;-56
2022/10/28 03:19:10;;;;;;;10.00;6.32;;;24.50;48.40;;;;;;6214114;28;81120;-56
2022/10/28 03:22:10;;;;;;;8.43;6.13;;;24.50;48.40;;;;;;6226458;27;81617;-56
2022/10/28 03:25:11;;;;;;;10.95;7.18;;;24.50;48.30;;;;;;6223632;28;81088;-55
2022/10/28 03:28:11;;;;;;;9.48;6.55;;;24.50;48.40;;;;;;6226833;28;80723;-55
2022/10/28 03:31:13;;;;;;;9.50;6.72;;;24.50;48.30;;;;;;6229277;28;87653;-56
2022/10/28 03:34:14;;;;;;;9.27;6.55;;;24.50;48.30;;;;;;6208099;28;82017;-57
2022/10/28 03:37:14;;;;;;;13.48;6.97;;;24.50;48.40;;;;;;6225913;28;80659;-53
2022/10/28 03:40:15;;;;;;;11.48;6.85;;;24.50;48.30;;;;;;6231131;27;80839;-56
2022/10/28 03:43:15;;;;;;;9.95;6.30;;;24.50;48.30;;;;;;6238699;28;80769;-55
2022/10/28 03:46:16;;;;;;;9.25;6.30;;;24.50;48.30;;;;;;6230668;27;80853;-54
2022/10/28 03:49:16;;;;;;;11.55;6.72;;;24.60;48.30;;;;;;6229449;28;80389;-55
2022/10/28 03:52:17;;;;;;;8.75;6.18;;;24.60;48.10;;;;;;6219388;27;81166;-58
2022/10/28 03:55:18;;;;;;;9.10;6.50;;;24.60;48.10;;;;;;6216791;28;83208;-57
2022/10/28 03:58:18;;;;;;;9.95;6.55;;;24.60;48.00;;;;;;6218441;28;80632;-57
2022/10/28 04:01:19;;;;;;;11.60;7.05;;;24.70;47.90;;;;;;6212907;28;81741;-57
2022/10/28 04:04:19;;;;;;;9.30;6.53;;;24.70;48.00;;;;;;6210580;28;80431;-58
2022/10/28 04:07:20;;;;;;;10.50;7.20;;;24.70;47.90;;;;;;6219049;28;84369;-58
2022/10/28 04:10:20;;;;;;;10.52;7.38;;;24.70;47.90;;;;;;6200893;28;86709;-59
2022/10/28 04:13:21;;;;;;;13.57;7.43;;;24.80;47.80;;;;;;6213080;28;82104;-64
2022/10/28 04:16:21;;;;;;;10.27;6.65;;;24.80;47.70;;;;;;6226388;28;80344;-61
2022/10/28 04:19:22;;;;;;;15.23;7.90;;;24.80;47.70;;;;;;6223458;28;84688;-60
2022/10/28 04:22:22;;;;;;;10.95;6.85;;;24.80;47.90;;;;;;6225050;28;80742;-59
2022/10/28 04:25:23;;;;;;;14.02;7.03;;;24.90;47.90;;;;;;6228801;28;81144;-58
2022/10/28 04:28:23;;;;;;;11.38;6.97;;;24.80;48.10;;;;;;6223195;28;80503;-55
2022/10/28 04:31:24;;;;;;;12.68;7.68;;;24.90;48.10;;;;;;6227354;28;81169;-55
2022/10/28 04:34:24;;;;;;;11.63;8.30;;;24.90;48.10;;;;;;6224641;28;81003;-59
2022/10/28 04:37:25;;;;;;;15.82;8.27;;;24.80;48.10;;;;;;6223616;28;86405;-59
2022/10/28 04:40:25;;;;;;;16.80;7.93;;;24.80;48.10;;;;;;6215324;28;80815;-59
2022/10/28 04:43:26;;;;;;;15.20;7.85;;;24.80;48.10;;;;;;6215689;28;80614;-59
2022/10/28 04:46:26;;;;;;;12.40;8.05;;;24.80;48.00;;;;;;6208434;28;80917;-59
2022/10/28 04:49:27;;;;;;;13.35;8.35;;;24.80;48.20;;;;;;6209628;28;82206;-60
2022/10/28 04:52:27;;;;;;;17.40;7.47;;;24.80;48.20;;;;;;6213574;28;80450;-60
2022/10/28 04:55:28;;;;;;;12.35;6.97;;;24.80;48.00;;;;;;6216262;28;80915;-58
2022/10/28 04:58:28;;;;;;;12.68;7.80;;;24.80;48.00;;;;;;6215083;28;80420;-61
2022/10/28 05:01:29;;;;;;;16.98;6.75;;;24.80;47.90;;;;;;6209370;28;81380;-64
2022/10/28 05:04:29;;;;;;;12.52;6.93;;;24.80;48.00;;;;;;6224035;28;83088;-66
2022/10/28 05:07:30;;;;;;;14.52;7.32;;;24.90;48.40;;;;;;6209019;28;81082;-59
2022/10/28 05:10:30;;;;;;;9.68;6.60;;;24.90;48.70;;;;;;6211499;28;83364;-64
2022/10/28 05:13:31;;;;;;;21.10;7.68;;;24.90;48.80;;;;;;6215015;28;80891;-60
2022/10/28 05:16:31;;;;;;;21.25;7.68;;;24.90;48.90;;;;;;6216124;28;80551;-60
2022/10/28 05:19:32;;;;;;;14.00;7.35;;;24.90;49.00;;;;;;6216573;28;85590;-60
2022/10/28 05:22:32;;;;;;;15.52;7.65;;;24.80;48.90;;;;;;6215812;28;81439;-61
2022/10/28 05:25:33;;;;;;;12.23;7.80;;;24.90;48.60;;;;;;6200315;28;82028;-60
2022/10/28 05:28:33;;;;;;;12.50;7.97;;;24.80;48.50;;;;;;6207763;28;81063;-57
2022/10/28 05:31:34;;;;;;;15.02;8.23;;;24.80;48.40;;;;;;6221458;27;80664;-58
2022/10/28 05:34:35;;;;;;;20.88;7.97;;;24.70;48.50;;;;;;6210840;28;80983;-58
2022/10/28 05:37:35;;;;;;;12.25;7.10;;;24.70;48.50;;;;;;6215851;28;80913;-58
2022/10/28 05:40:36;;;;;;;14.48;8.18;;;24.70;48.40;;;;;;6218590;28;83141;-58
2022/10/28 05:43:36;;;;;;;12.30;8.23;;;24.70;48.40;;;;;;6209121;28;80417;-57
2022/10/28 05:46:37;;;;;;;13.80;8.27;;;24.70;48.60;;;;;;6213586;28;87648;-64
2022/10/28 05:49:37;;;;;;;16.15;8.23;;;24.70;48.50;;;;;;6213772;28;81098;-58
2022/10/28 05:52:38;;;;;;;15.85;8.23;;;24.60;48.30;;;;;;6209652;28;80721;-59
2022/10/28 05:55:38;;;;;;;13.35;8.52;;;24.60;48.20;;;;;;6211066;28;82963;-58
2022/10/28 05:58:39;;;;;;;15.10;8.55;;;24.70;48.10;;;;;;6217355;28;80890;-60
2022/10/28 06:01:39;;;;;;;14.93;9.15;;;24.70;48.00;;;;;;6219169;28;83778;-60
2022/10/28 06:04:40;;;;;;;13.88;9.30;;;24.60;47.80;;;;;;6221262;28;81048;-60
2022/10/28 06:07:40;;;;;;;15.77;8.73;;;24.60;47.70;;;;;;6222679;28;80544;-60
2022/10/28 06:10:41;;;;;;;17.60;8.40;;;24.60;47.50;;;;;;6221904;28;80616;-58
2022/10/28 06:13:41;;;;;;;21.33;9.02;;;24.60;47.50;;;;;;6220735;28;81968;-60
2022/10/28 06:16:42;;;;;;;17.20;8.25;;;24.60;47.50;;;;;;6221136;28;86841;-59
2022/10/28 06:19:43;;;;;;;13.55;8.43;;;24.60;47.40;;;;;;6218297;28;81455;-60
2022/10/28 06:22:43;;;;;;;14.07;7.63;;;24.60;47.40;;;;;;6221343;28;80236;-60
2022/10/28 06:25:44;;;;;;;16.50;8.02;;;24.50;47.40;;;;;;6226074;28;81097;-58
2022/10/28 06:28:44;;;;;;;11.15;7.40;;;24.60;47.40;;;;;;6220208;28;86109;-58
2022/10/28 06:31:45;;;;;;;17.42;8.07;;;24.60;47.50;;;;;;6208495;28;80552;-58
2022/10/28 06:34:45;;;;;;;16.35;7.88;;;24.60;47.40;;;;;;6217503;28;80121;-57
2022/10/28 06:37:46;;;;;;;15.20;8.57;;;24.60;47.30;;;;;;6217387;28;80521;-58
2022/10/28 06:40:46;;;;;;;13.90;8.07;;;24.60;47.10;;;;;;6211407;28;80420;-58
2022/10/28 06:43:47;;;;;;;14.23;8.45;;;24.70;47.30;;;;;;6224207;28;81055;-59
2022/10/28 06:46:47;;;;;;;16.83;8.73;;;24.70;47.30;;;;;;6206779;28;80210;-59
2022/10/28 06:49:48;;;;;;;15.75;8.48;;;24.70;47.20;;;;;;6202385;28;81362;-59
2022/10/28 06:52:48;;;;;;;15.00;8.10;;;24.70;47.20;;;;;;6216675;28;80489;-59
2022/10/28 06:55:49;;;;;;;14.60;8.82;;;24.80;47.20;;;;;;6216705;28;81510;-59
2022/10/28 06:58:50;;;;;;;16.83;8.90;;;24.80;47.30;;;;;;6213477;28;80266;-59
2022/10/28 07:01:50;;;;;;;16.35;8.63;;;24.80;47.20;;;;;;6203880;28;80953;-61
2022/10/28 07:04:51;;;;;;;15.95;8.40;;;24.80;47.30;;;;;;6209947;28;80882;-61
2022/10/28 07:07:52;;;;;;;15.02;8.43;;;24.80;47.20;;;;;;6205416;28;82534;-61
2022/10/28 07:10:53;;;;;;;15.38;8.52;;;24.80;47.30;;;;;;6214668;28;81647;-62
2022/10/28 07:13:53;;;;;;;16.17;8.50;;;24.80;47.30;;;;;;6212667;28;80773;-62
2022/10/28 07:16:54;;;;;;;12.85;8.02;;;24.90;47.60;;;;;;6213941;28;80424;-62
2022/10/28 07:19:54;;;;;;;18.13;8.65;;;24.90;47.40;;;;;;6213591;28;81006;-63
2022/10/28 07:22:55;;;;;;;18.05;7.72;;;25.00;47.20;;;;;;6212216;28;80479;-62
2022/10/28 07:25:56;;;;;;;13.20;8.80;;;25.00;47.30;;;;;;6205435;28;80450;-61
2022/10/28 07:28:56;;;;;;;14.48;8.13;;;25.00;47.70;;;;;;6208573;28;81301;-60
2022/10/28 07:31:57;;;;;;;17.05;8.82;;;25.10;47.30;;;;;;6209463;28;83938;-62
2022/10/28 07:34:57;;;;;;;13.90;8.35;;;25.10;47.30;;;;;;6203061;28;80960;-63
2022/10/28 07:37:58;;;;;;;16.00;8.93;;;25.20;47.50;;;;;;6214070;28;81046;-67
2022/10/28 07:40:58;;;;;;;15.65;8.88;;;25.20;47.20;;;;;;6213930;28;80544;-64
2022/10/28 07:43:59;;;;;;;15.30;9.10;;;25.30;47.30;;;;;;6209682;28;82855;-63
2022/10/28 07:46:59;;;;;;;14.23;9.00;;;25.30;47.10;;;;;;6206802;28;80671;-67
2022/10/28 07:50:00;;;;;;;17.63;9.23;;;25.40;47.10;;;;;;6207273;28;80784;-64
2022/10/28 07:53:00;;;;;;;15.48;8.73;;;25.40;47.10;;;;;;6213569;28;82596;-67
2022/10/28 07:56:01;;;;;;;18.67;9.00;;;25.40;47.00;;;;;;6195787;28;82174;-58
2022/10/28 07:59:01;;;;;;;16.42;9.23;;;25.40;47.10;;;;;;6194305;28;81423;-59
2022/10/28 08:02:02;;;;;;;20.75;11.15;;;25.50;47.10;;;;;;6193185;28;85198;-59
2022/10/28 08:05:02;;;;;;;19.15;11.23;;;25.50;47.20;;;;;;6175535;28;83369;-59
2022/10/28 08:08:03;;;;;;;23.67;14.00;;;25.50;47.10;;;;;;6196241;28;88894;-59
2022/10/28 08:11:03;;;;;;;27.90;16.77;;;25.60;47.30;;;;;;6197298;28;83828;-58
2022/10/28 08:14:04;;;;;;;33.58;18.65;;;25.70;47.40;;;;;;6206963;28;83459;-58
2022/10/28 08:17:05;;;;;;;33.22;20.15;;;25.70;47.40;;;;;;6202691;28;86740;-59
2022/10/28 08:20:05;;;;;;;40.33;22.65;;;25.80;47.40;;;;;;6196949;28;90120;-58
2022/10/28 08:23:06;;;;;;;37.53;21.85;;;25.70;47.80;;;;;;6207196;28;85390;-59
2022/10/28 08:26:06;;;;;;;36.83;21.15;;;25.80;48.10;;;;;;6211360;28;87021;-57
2022/10/28 08:29:07;;;;;;;35.72;20.20;;;25.80;48.30;;;;;;6212969;28;84290;-59
2022/10/28 08:32:08;;;;;;;33.05;18.80;;;25.80;48.20;;;;;;6218376;28;82961;-68
2022/10/28 08:35:08;;;;;;;34.65;18.35;;;25.90;48.20;;;;;;6207833;28;84695;-60
2022/10/28 08:38:09;;;;;;;25.90;15.50;;;25.90;48.10;;;;;;6226590;28;83225;-60
2022/10/28 08:41:09;;;;;;;30.38;16.50;;;26.00;48.20;;;;;;6214619;28;83076;-61
2022/10/28 08:44:10;;;;;;;20.90;14.20;;;26.00;48.20;;;;;;6201086;28;83302;-60
2022/10/28 08:47:10;;;;;;;22.65;13.95;;;26.00;48.10;;;;;;6204929;28;83918;-61
2022/10/28 08:50:11;;;;;;;24.58;13.40;;;26.10;48.20;;;;;;6207332;28;83066;-59
2022/10/28 08:53:11;;;;;;;19.77;12.52;;;26.10;48.20;;;;;;6215173;28;83414;-62
2022/10/28 08:56:13;;;;;;;19.80;12.18;;;26.10;48.20;;;;;;6199075;28;83280;-61
2022/10/28 08:59:13;;;;;;;19.80;11.35;;;26.10;48.20;;;;;;6216356;28;83148;-61
2022/10/28 09:02:14;;;;;;;14.88;10.60;;;26.20;48.30;;;;;;6200902;28;84247;-62
2022/10/28 09:05:15;;;;;;;19.25;10.95;;;26.20;48.30;;;;;;6207129;28;83244;-61
2022/10/28 09:08:15;;;;;;;15.63;9.57;;;26.20;48.30;;;;;;6219762;28;83775;-59
2022/10/28 09:11:16;;;;;;;15.02;9.38;;;26.30;48.30;;;;;;6212567;28;83382;-58
2022/10/28 09:14:16;;;;;;;13.07;8.48;;;26.30;48.30;;;;;;6201936;28;80562;-59
2022/10/28 09:17:18;;;;;;;17.13;8.98;;;26.40;48.50;;;;;;6209054;28;87245;-60
2022/10/28 09:20:19;;;;;;;11.38;7.40;;;26.40;48.50;;;;;;6222120;28;81810;-61
2022/10/28 09:23:20;;;;;;;12.18;7.90;;;26.40;48.30;;;;;;6217217;28;83250;-60
2022/10/28 09:26:20;;;;;;;12.27;7.65;;;26.50;48.30;;;;;;6184442;28;84902;-59
2022/10/28 09:29:21;;;;;;;10.20;6.90;;;26.50;48.20;;;;;;6222071;28;80560;-61
2022/10/28 09:32:21;;;;;;;11.05;6.85;;;26.50;48.20;;;;;;6216922;28;82491;-62
2022/10/28 09:35:22;;;;;;;9.77;6.95;;;26.50;48.20;;;;;;6211917;28;80902;-62
2022/10/28 09:38:22;;;;;;;10.52;6.53;;;26.60;48.30;;;;;;6218756;28;80652;-61
2022/10/28 09:41:23;;;;;;;14.75;6.15;;;26.60;48.20;;;;;;6208252;28;81366;-60
2022/10/28 09:44:23;;;;;;;8.13;5.68;;;26.60;48.20;;;;;;6213193;28;80199;-61
2022/10/28 09:47:24;;;;;;;10.75;6.07;;;26.60;48.20;;;;;;6204820;28;80488;-61
2022/10/28 09:50:24;;;;;;;8.13;5.60;;;26.70;48.40;;;;;;6197953;28;86889;-61
2022/10/28 09:53:25;;;;;;;12.25;6.10;;;26.70;48.30;;;;;;6209583;28;80884;-60
2022/10/28 09:56:25;;;;;;;9.13;5.68;;;26.80;48.30;;;;;;6215360;28;87636;-60
2022/10/28 09:59:26;;;;;;;11.77;5.35;;;26.80;48.30;;;;;;6205338;28;80855;-60
2022/10/28 10:02:26;;;;;;;8.30;5.80;;;26.80;48.40;;;;;;6195952;28;86159;-61
2022/10/28 10:05:27;;;;;;;7.65;5.55;;;26.80;48.50;;;;;;6226975;28;81691;-60
2022/10/28 10:08:30;;;;;;;9.13;5.88;;;26.80;48.60;;;;;;6209174;28;80375;-60
2022/10/28 10:11:30;;;;;;;9.88;5.80;;;26.90;48.90;;;;;;6219308;28;80318;-60
2022/10/28 10:14:31;;;;;;;7.40;5.80;;;26.80;48.80;;;;;;6223118;28;80731;-61
2022/10/28 10:17:31;;;;;;;10.27;6.28;;;26.90;49.00;;;;;;6213192;28;80531;-61
2022/10/28 10:20:32;;;;;;;10.20;5.55;;;26.90;49.00;;;;;;6220245;28;84269;-61
2022/10/28 10:23:32;;;;;;;12.13;6.05;;;26.90;48.90;;;;;;6210777;28;81170;-71
2022/10/28 10:26:33;;;;;;;11.60;5.93;;;26.80;48.80;;;;;;6202524;28;83299;-66
2022/10/28 10:29:33;;;;;;;7.43;5.25;;;26.80;48.80;;;;;;6206516;28;81653;-65
2022/10/28 10:32:34;;;;;;;7.90;5.40;;;26.90;48.90;;;;;;6208517;28;80880;-67
2022/10/28 10:35:34;;;;;;;10.93;5.28;;;26.80;48.60;;;;;;6200482;28;80825;-69
2022/10/28 10:38:35;;;;;;;7.25;5.22;;;26.90;48.60;;;;;;6208794;28;87193;-68
2022/10/28 10:41:35;;;;;;;9.38;5.50;;;26.90;48.60;;;;;;6210998;28;80860;-61
2022/10/28 10:44:36;;;;;;;12.23;5.15;;;26.80;48.30;;;;;;6218713;28;81586;-60
2022/10/28 10:47:36;;;;;;;13.18;5.43;;;26.80;49.00;;;;;;6205239;28;80543;-61
2022/10/28 10:50:37;;;;;;;13.52;5.63;;;26.90;48.40;;;;;;6199799;28;80902;-61
2022/10/28 10:53:37;;;;;;;10.40;5.53;;;26.90;48.10;;;;;;6208162;28;80995;-61
2022/10/28 10:56:38;;;;;;;9.82;5.07;;;26.90;48.30;;;;;;6214986;28;80934;-60
2022/10/28 10:59:38;;;;;;;11.45;5.90;;;27.00;48.30;;;;;;6198812;28;80523;-60
2022/10/28 11:02:39;;;;;;;11.13;6.00;;;27.10;48.00;;;;;;6214901;28;84125;-60
2022/10/28 11:05:39;;;;;;;10.57;5.38;;;27.10;47.90;;;;;;6210800;28;80256;-60
2022/10/28 11:08:40;;;;;;;8.45;5.35;;;27.10;48.00;;;;;;6220391;28;86534;-60
2022/10/28 11:11:41;;;;;;;12.27;5.85;;;27.20;47.90;;;;;;6221426;28;80123;-58
2022/10/28 11:14:41;;;;;;;7.03;5.18;;;27.10;48.00;;;;;;6217165;28;84241;-60
2022/10/28 11:17:42;;;;;;;8.73;5.07;;;27.10;48.30;;;;;;6216457;28;81687;-60
2022/10/28 11:20:42;;;;;;;13.90;4.90;;;27.10;48.40;;;;;;6216896;28;80554;-59
2022/10/28 11:23:43;;;;;;;10.30;5.05;;;27.00;48.50;;;;;;6213364;28;80794;-59
2022/10/28 11:26:43;;;;;;;17.30;4.82;;;27.00;48.40;;;;;;6218110;28;80357;-59
2022/10/28 11:29:44;;;;;;;8.85;4.97;;;27.00;48.30;;;;;;6223121;28;80960;-58
2022/10/28 11:32:44;;;;;;;13.88;5.75;;;27.00;48.40;;;;;;6221603;28;80554;-59
2022/10/28 11:35:45;;;;;;;9.90;5.50;;;26.90;48.80;;;;;;6203404;28;80799;-72
2022/10/28 11:38:45;;;;;;;10.02;4.97;;;26.90;48.90;;;;;;6204461;28;80867;-62
2022/10/28 11:41:46;;;;;;;10.13;4.97;;;26.80;48.50;;;;;;6212523;28;81244;-62
2022/10/28 11:44:46;;;;;;;6.95;5.07;;;26.90;48.60;;;;;;6227659;28;84933;-63
2022/10/28 11:47:47;;;;;;;10.55;4.97;;;26.90;48.30;;;;;;6216237;28;80359;-63
2022/10/28 11:50:47;;;;;;;8.75;5.05;;;27.00;48.40;;;;;;6216365;28;80491;-62
2022/10/28 11:53:48;;;;;;;13.57;5.28;;;27.00;47.80;;;;;;6209931;28;80830;-62
2022/10/28 11:56:48;;;;;;;11.07;5.63;;;27.00;48.20;;;;;;6220258;28;80487;-61
2022/10/28 11:59:49;;;;;;;9.25;4.80;;;26.80;47.90;;;;;;6223194;28;80811;-63
2022/10/28 12:02:50;;;;;;;17.48;5.32;;;26.70;47.90;;;;;;6211946;28;80833;-62
2022/10/28 12:05:50;;;;;;;10.30;5.05;;;26.60;48.10;;;;;;6221203;28;81848;-63
2022/10/28 12:08:50;;;;;;;9.57;5.15;;;26.70;48.10;;;;;;6220495;28;81023;-63
2022/10/28 12:11:51;;;;;;;8.98;4.97;;;26.50;48.10;;;;;;6218017;28;82118;-71
2022/10/28 12:14:52;;;;;;;9.65;5.55;;;26.60;48.40;;;;;;6220417;28;80648;-60
2022/10/28 12:17:52;;;;;;;9.52;5.30;;;26.70;48.40;;;;;;6216699;28;82384;-59
2022/10/28 12:20:53;;;;;;;11.20;5.38;;;26.80;48.20;;;;;;6216292;28;80311;-58
2022/10/28 12:23:53;;;;;;;12.32;5.13;;;26.90;48.40;;;;;;6191922;28;82494;-60
2022/10/28 12:26:54;;;;;;;12.27;5.72;;;27.00;48.20;;;;;;6200948;28;82845;-57
2022/10/28 12:29:54;;;;;;;7.55;4.88;;;27.10;48.20;;;;;;6217728;28;80530;-56
2022/10/28 12:32:55;;;;;;;8.68;4.88;;;27.10;48.00;;;;;;6214711;27;80825;-62
2022/10/28 12:35:55;;;;;;;11.15;5.25;;;27.00;48.20;;;;;;6216291;28;80978;-63
2022/10/28 12:38:56;;;;;;;9.25;5.65;;;26.90;48.40;;;;;;6214494;28;83535;-62
2022/10/28 12:41:56;;;;;;;6.97;4.82;;;26.90;48.30;;;;;;6209823;28;81372;-63
2022/10/28 12:44:57;;;;;;;12.80;5.25;;;26.90;48.20;;;;;;6205241;28;81404;-62
2022/10/28 12:47:58;;;;;;;9.15;6.90;;;27.00;47.40;;;;;;6213412;28;81185;-62
2022/10/28 12:50:58;;;;;;;12.13;5.35;;;27.10;47.10;;;;;;6222598;28;80859;-57
2022/10/28 12:53:59;;;;;;;11.52;6.00;;;27.10;46.90;;;;;;6211093;28;81546;-59
2022/10/28 12:56:59;;;;;;;9.73;5.15;;;27.10;46.90;;;;;;6211259;28;80726;-59
2022/10/28 13:00:00;;;;;;;9.25;5.60;;;27.10;46.90;;;;;;6221947;28;81486;-57
2022/10/28 13:03:00;;;;;;;11.65;5.63;;;27.10;47.20;;;;;;6231077;27;80451;-57
2022/10/28 13:06:01;;;;;;;11.10;5.43;;;27.10;47.40;;;;;;6223176;28;81187;-57
2022/10/28 13:09:01;;;;;;;7.13;4.93;;;27.10;47.30;;;;;;6218270;28;80616;-62
2022/10/28 13:12:02;;;;;;;10.75;4.95;;;27.10;47.40;;;;;;6235609;27;80448;-61
2022/10/28 13:15:02;;;;;;;8.65;5.10;;;27.10;47.40;;;;;;6231170;27;80844;-60
2022/10/28 13:18:03;;;;;;;10.05;5.20;;;27.10;47.60;;;;;;6231048;28;80686;-60
2022/10/28 13:21:03;;;;;;;9.32;5.55;;;27.10;47.60;;;;;;6227920;27;81022;-63
2022/10/28 13:24:04;;;;;;;9.85;6.60;;;27.10;47.60;;;;;;6225189;28;83473;-62
2022/10/28 13:27:04;;;;;;;11.68;5.78;;;27.10;47.80;;;;;;6221839;28;80871;-64
2022/10/28 13:30:05;;;;;;;10.90;6.20;;;27.10;48.70;;;;;;6222635;28;82565;-62
2022/10/28 13:33:06;;;;;;;9.95;6.20;;;27.10;48.50;;;;;;6227951;28;80750;-60
2022/10/28 13:36:06;;;;;;;10.35;5.10;;;27.10;48.60;;;;;;6228815;27;84374;-61
2022/10/28 13:39:07;;;;;;;9.68;5.85;;;27.10;48.90;;;;;;6218022;28;82404;-60
2022/10/28 13:42:07;;;;;;;8.82;5.97;;;27.10;48.80;;;;;;6217405;28;82225;-59
2022/10/28 13:45:08;;;;;;;15.85;6.40;;;27.10;48.80;;;;;;6220631;28;81793;-74
2022/10/28 13:48:08;;;;;;;13.55;6.57;;;27.10;48.80;;;;;;6223477;28;81401;-73
2022/10/28 13:51:09;;;;;;;11.38;6.88;;;27.10;48.70;;;;;;6221124;28;80970;-70
2022/10/28 13:54:09;;;;;;;15.82;6.57;;;27.00;48.70;;;;;;6217187;28;80249;-79
2022/10/28 13:57:10;;;;;;;10.20;6.13;;;26.90;48.90;;;;;;6223761;28;80464;-76
2022/10/28 14:00:10;;;;;;;10.63;6.45;;;27.00;49.00;;;;;;6222787;28;85046;-76
2022/10/28 14:03:11;;;;;;;11.32;6.97;;;26.90;48.70;;;;;;6224025;28;80685;-55
2022/10/28 14:06:11;;;;;;;13.32;8.15;;;26.80;48.90;;;;;;6220652;28;81308;-58
2022/10/28 14:09:12;;;;;;;9.77;7.13;;;26.60;49.40;;;;;;6217851;28;81725;-58
2022/10/28 14:12:12;;;;;;;10.60;7.65;;;26.50;49.50;;;;;;6222912;28;81712;-55
2022/10/28 14:15:13;;;;;;;17.48;8.45;;;26.50;49.70;;;;;;6220845;28;81418;-56
2022/10/28 14:18:13;;;;;;;17.63;9.32;;;26.50;49.80;;;;;;6221959;28;80238;-55
2022/10/28 14:21:14;;;;;;;15.65;7.90;;;26.50;49.90;;;;;;6220949;28;80566;-57
2022/10/28 14:24:14;;;;;;;24.17;9.05;;;26.50;50.00;;;;;;6213830;28;80879;-58
2022/10/28 14:27:16;;;;;;;22.80;9.55;;;26.50;50.00;;;;;;6221899;28;80863;-56
2022/10/28 14:30:17;;;;;;;14.60;8.98;;;26.50;50.20;;;;;;6220671;28;81381;-57
2022/10/28 14:33:18;;;;;;;12.52;8.50;;;26.50;50.30;;;;;;6219141;28;86897;-55
2022/10/28 14:36:19;;;;;;;19.73;11.27;;;26.50;50.50;;;;;;6220963;28;81271;-55
2022/10/28 14:39:19;;;;;;;15.93;8.80;;;26.50;50.50;;;;;;6222831;28;85349;-57
2022/10/28 14:42:20;;;;;;;18.08;9.23;;;26.50;50.60;;;;;;6227372;28;82777;-56
2022/10/28 14:45:21;;;;;;;18.38;8.98;;;26.50;50.90;;;;;;6217287;28;81295;-58
2022/10/28 14:48:21;;;;;;;18.85;9.20;;;26.50;50.80;;;;;;6223866;28;81261;-56
2022/10/28 14:51:22;;;;;;;14.63;9.73;;;26.50;50.90;;;;;;6223295;28;80775;-55
2022/10/28 14:54:22;;;;;;;16.77;9.48;;;26.50;51.10;;;;;;6217695;28;80624;-56
2022/10/28 14:57:23;;;;;;;17.13;9.70;;;26.50;51.10;;;;;;6232714;28;80495;-54
2022/10/28 15:00:28;;;;;;;17.08;10.38;;;26.50;51.50;;;;;;6220945;28;81907;-56
2022/10/28 15:03:28;;;;;;;19.67;10.37;;;26.50;51.50;;;;;;6213579;28;82798;-57
2022/10/28 15:06:29;;;;;;;18.92;10.00;;;26.40;51.40;;;;;;6215528;28;83498;-57
2022/10/28 15:09:29;;;;;;;16.83;9.40;;;26.40;51.60;;;;;;6215948;28;82891;-57
2022/10/28 15:12:30;;;;;;;15.85;10.30;;;26.30;51.80;;;;;;6219272;28;83208;-55
2022/10/28 15:15:30;;;;;;;16.70;11.13;;;26.30;51.80;;;;;;6218260;28;84034;-56
2022/10/28 15:18:31;;;;;;;19.30;10.77;;;26.30;51.90;;;;;;6218064;28;85210;-72
2022/10/28 15:21:31;;;;;;;21.40;10.98;;;26.20;52.00;;;;;;6220455;28;83701;-76
2022/10/28 15:24:32;;;;;;;18.55;10.00;;;26.20;52.30;;;;;;6231218;28;85599;-73
2022/10/28 15:27:32;;;;;;;29.20;12.07;;;26.20;52.40;;;;;;6228805;28;83309;-75